Time;durP1;ratioP1;P1;durP2;ratioP2;P2;SDS_P1;SDS_P2;PMS_P1;PMS_P2;Temp;Humidity;BMP_temperature;BMP_pressure;BME280_temperature;BME280_humidity;BME280_pressure;Samples;Min_cycle;Max_cycle;Signal;HPM_P1;HPM_P2
2022/03/22 00:01:07;;;;;;;;;;;10.50;99.90;;;;;;5033668;28;19921;-83
2022/03/22 00:03:34;;;;;;;;;;;10.50;99.90;;;;;;5020535;28;19932;-83
2022/03/22 00:06:03;;;;;;;;;;;10.40;99.90;;;;;;5028178;28;19925;-82
2022/03/22 00:08:30;;;;;;;;;;;10.40;99.90;;;;;;5008904;28;19943;-83
2022/03/22 00:10:57;;;;;;;;;;;10.30;99.90;;;;;;5019797;28;19960;-82
2022/03/22 00:13:24;;;;;;;;;;;10.30;99.90;;;;;;5023455;28;19922;-83
2022/03/22 00:15:52;;;;;;;;;;;10.80;99.90;;;;;;5027383;28;20004;-83
2022/03/22 00:18:19;;;;;;;;;;;10.30;99.90;;;;;;5010455;28;19921;-83
2022/03/22 00:20:46;;;;;;;;;;;10.20;99.90;;;;;;5024701;28;20891;-83
2022/03/22 00:23:14;;;;;;;;;;;10.30;99.90;;;;;;5021586;28;19925;-83
2022/03/22 00:25:41;;;;;;;;;;;10.30;99.90;;;;;;5020494;28;19925;-83
2022/03/22 00:28:08;;;;;;;;;;;10.30;99.90;;;;;;5026061;28;19921;-83
2022/03/22 00:30:35;;;;;;;;;;;10.30;99.90;;;;;;5025747;28;19984;-83
2022/03/22 00:33:02;;;;;;;;;;;10.30;99.90;;;;;;5004471;28;19996;-83
2022/03/22 00:35:30;;;;;;;;;;;10.30;99.90;;;;;;5026601;28;19944;-83
2022/03/22 00:37:57;;;;;;;;;;;10.30;99.90;;;;;;5020227;28;19925;-83
2022/03/22 00:40:26;;;;;;;;;;;10.30;99.90;;;;;;5019779;28;20028;-83
2022/03/22 00:42:53;;;;;;;;;;;10.30;99.90;;;;;;5024275;28;19967;-83
2022/03/22 00:45:22;;;;;;;;;;;10.30;99.90;;;;;;5028739;28;19924;-84
2022/03/22 00:47:49;;;;;;;;;;;10.30;99.90;;;;;;5018676;28;20012;-82
2022/03/22 00:50:20;;;;;;;;;;;10.20;99.90;;;;;;5020253;28;19925;-84
2022/03/22 00:52:47;;;;;;;;;;;10.20;99.90;;;;;;5032088;28;19925;-83
2022/03/22 00:55:14;;;;;;;;;;;10.20;99.90;;;;;;5034737;28;19928;-83
2022/03/22 00:57:43;;;;;;;;;;;10.20;99.90;;;;;;5020662;28;19940;-83
2022/03/22 01:00:11;;;;;;;;;;;10.20;99.90;;;;;;5013530;28;19935;-83
2022/03/22 01:02:39;;;;;;;;;;;10.20;99.90;;;;;;5029618;28;19929;-83
2022/03/22 01:05:07;;;;;;;;;;;10.10;99.90;;;;;;5025371;28;20380;-83
2022/03/22 01:07:34;;;;;;;;;;;10.10;99.90;;;;;;5022220;28;19924;-83
2022/03/22 01:10:01;;;;;;;;;;;10.00;99.90;;;;;;5020663;28;19921;-83
2022/03/22 01:12:30;;;;;;;;;;;10.00;99.90;;;;;;5029892;28;19937;-84
2022/03/22 01:14:58;;;;;;;;;;;9.90;99.90;;;;;;5022870;28;19976;-83
2022/03/22 01:17:25;;;;;;;;;;;9.90;99.90;;;;;;5004606;28;20545;-83
2022/03/22 01:19:51;;;;;;;;;;;9.80;99.90;;;;;;5021185;28;19932;-83
2022/03/22 01:22:18;;;;;;;;;;;9.80;99.90;;;;;;5012980;28;19925;-83
2022/03/22 01:24:45;;;;;;;;;;;9.70;99.90;;;;;;5014737;28;20408;-83
2022/03/22 01:27:12;;;;;;;;;;;9.60;99.90;;;;;;5026866;28;19948;-84
2022/03/22 01:29:39;;;;;;;;;;;9.60;99.90;;;;;;5025707;28;19985;-84
2022/03/22 01:32:09;;;;;;;;;;;9.50;99.90;;;;;;5018505;28;19925;-84
2022/03/22 01:34:35;;;;;;;;;;;9.50;99.90;;;;;;5019427;28;19940;-83
2022/03/22 01:37:02;;;;;;;;;;;9.50;99.90;;;;;;5020250;28;19925;-84
2022/03/22 01:39:30;;;;;;;;;;;9.50;99.90;;;;;;5008731;28;19955;-83
2022/03/22 01:41:58;;;;;;;;;;;9.50;99.90;;;;;;5024343;28;19932;-83
2022/03/22 01:44:25;;;;;;;;;;;9.50;99.90;;;;;;5012262;28;19979;-83
2022/03/22 01:46:52;;;;;;;;;;;9.50;99.90;;;;;;5017369;28;19921;-83
2022/03/22 01:49:21;;;;;;;;;;;9.40;99.90;;;;;;5025385;28;19921;-83
2022/03/22 01:51:48;;;;;;;;;;;9.40;99.90;;;;;;5017061;28;19929;-83
2022/03/22 01:54:16;;;;;;;;;;;9.30;99.90;;;;;;5027375;28;19936;-83
2022/03/22 01:56:43;;;;;;;;;;;9.30;99.90;;;;;;5027133;28;19925;-83
2022/03/22 01:59:09;;;;;;;;;;;9.30;99.90;;;;;;5016139;28;20690;-83
2022/03/22 02:07:07;;;;;;;;;;;9.20;99.90;;;;;;5022899;28;20404;-84
2022/03/22 02:09:34;;;;;;;;;;;9.10;99.90;;;;;;5003584;28;19925;-83
2022/03/22 02:12:01;;;;;;;;;;;9.10;99.90;;;;;;5012941;28;19928;-82
2022/03/22 02:14:28;;;;;;;;;;;9.10;99.90;;;;;;5029398;28;19932;-84
2022/03/22 02:16:55;;;;;;;;;;;9.10;99.90;;;;;;5022418;28;20507;-84
2022/03/22 02:19:23;;;;;;;;;;;9.10;99.90;;;;;;5011261;28;19948;-84
2022/03/22 02:21:52;;;;;;;;;;;9.10;99.90;;;;;;5015176;28;19925;-83
2022/03/22 02:24:21;;;;;;;;;;;9.10;99.90;;;;;;5013712;28;19945;-82
2022/03/22 02:26:48;;;;;;;;;;;9.10;99.90;;;;;;5021283;28;19948;-82
2022/03/22 02:29:15;;;;;;;;;;;9.10;99.90;;;;;;5029719;28;19939;-83
2022/03/22 02:31:41;;;;;;;;;;;9.20;99.90;;;;;;5019438;28;20366;-84
2022/03/22 02:34:08;;;;;;;;;;;9.20;99.90;;;;;;5037685;28;19924;-84
2022/03/22 02:36:36;;;;;;;;;;;9.20;99.90;;;;;;5025390;28;19929;-83
2022/03/22 02:39:02;;;;;;;;;;;9.30;99.90;;;;;;5016278;28;19937;-84
2022/03/22 02:41:32;;;;;;;;;;;9.30;99.90;;;;;;5017908;28;19925;-84
2022/03/22 02:43:58;;;;;;;;;;;9.30;99.90;;;;;;5026885;28;19944;-83
2022/03/22 02:46:25;;;;;;;;;;;9.30;99.90;;;;;;5016641;28;20472;-82
2022/03/22 02:48:52;;;;;;;;;;;9.30;99.90;;;;;;5020835;28;19982;-83
2022/03/22 02:51:19;;;;;;;;;;;9.30;99.90;;;;;;5029339;28;19952;-84
2022/03/22 02:53:45;;;;;;;;;;;9.30;99.90;;;;;;5021110;28;19951;-83
2022/03/22 02:56:12;;;;;;;;;;;9.40;99.90;;;;;;5019957;28;19925;-84
2022/03/22 02:58:41;;;;;;;;;;;9.50;99.90;;;;;;5014614;28;20635;-83
2022/03/22 03:01:07;;;;;;;;;;;9.50;99.90;;;;;;5005874;28;19999;-83
2022/03/22 03:03:34;;;;;;;;;;;9.50;99.90;;;;;;5026047;28;19925;-83
2022/03/22 03:06:02;;;;;;;;;;;9.50;99.90;;;;;;5031838;28;19925;-82
2022/03/22 03:08:29;;;;;;;;;;;9.50;99.90;;;;;;5019692;28;19940;-82
2022/03/22 03:10:56;;;;;;;;;;;9.60;99.90;;;;;;5011228;28;20088;-83
2022/03/22 03:13:22;;;;;;;;;;;9.60;99.90;;;;;;5019630;28;19976;-83
2022/03/22 03:15:51;;;;;;;;;;;9.60;99.90;;;;;;5018273;28;19928;-83
2022/03/22 03:18:18;;;;;;;;;;;9.60;99.90;;;;;;5023555;28;20012;-83
2022/03/22 03:20:45;;;;;;;;;;;9.60;99.90;;;;;;5025381;28;20023;-83
2022/03/22 03:23:11;;;;;;;;;;;9.60;99.90;;;;;;5017426;28;19933;-83
2022/03/22 03:25:38;;;;;;;;;;;9.50;99.90;;;;;;5024566;28;19932;-84
2022/03/22 03:28:05;;;;;;;;;;;9.50;99.90;;;;;;5024209;28;19968;-83
2022/03/22 03:30:32;;;;;;;;;;;9.50;99.90;;;;;;5026123;28;19948;-83
2022/03/22 03:33:00;;;;;;;;;;;9.40;99.90;;;;;;5022533;28;19956;-83
2022/03/22 03:35:26;;;;;;;;;;;9.40;99.90;;;;;;5012062;28;20442;-82
2022/03/22 03:37:53;;;;;;;;;;;9.40;99.90;;;;;;5019984;28;19928;-85
2022/03/22 03:41:53;;;;;;;;;;;11.40;99.90;;;;;;5022473;28;19929;-84
2022/03/22 03:43:08;;;;;;;;;;;9.40;99.90;;;;;;5019435;28;19925;-85
2022/03/22 03:48:20;;;;;;;;;;;9.30;99.90;;;;;;5030294;28;20343;-84
2022/03/22 03:50:47;;;;;;;;;;;9.20;99.90;;;;;;5022291;28;19936;-84
2022/03/22 03:53:14;;;;;;;;;;;9.20;99.80;;;;;;5018861;28;19951;-85
2022/03/22 03:55:41;;;;;;;;;;;9.10;99.80;;;;;;5013272;28;20413;-84
2022/03/22 03:58:08;;;;;;;;;;;9.20;99.70;;;;;;5031270;28;19921;-81
2022/03/22 04:00:34;;;;;;;;;;;9.10;99.70;;;;;;5027180;28;19968;-84
2022/03/22 04:03:01;;;;;;;;;;;9.50;99.80;;;;;;5023640;28;19921;-82
2022/03/22 04:05:30;;;;;;;;;;;9.00;99.50;;;;;;5031944;28;19996;-82
2022/03/22 04:07:57;;;;;;;;;;;9.10;99.50;;;;;;5031450;28;20617;-81
2022/03/22 04:10:23;;;;;;;;;;;9.00;99.50;;;;;;5029963;28;19976;-84
2022/03/22 04:12:50;;;;;;;;;;;9.00;99.40;;;;;;5023433;28;19926;-85
2022/03/22 04:15:17;;;;;;;;;;;9.00;99.30;;;;;;5023863;28;20281;-82
2022/03/22 04:17:43;;;;;;;;;;;9.00;99.40;;;;;;5021739;28;20004;-82
2022/03/22 04:20:11;;;;;;;;;;;8.90;99.20;;;;;;5015531;28;20380;-84
2022/03/22 04:22:39;;;;;;;;;;;8.90;99.10;;;;;;5019408;28;19922;-83
2022/03/22 04:25:07;;;;;;;;;;;8.90;99.10;;;;;;5029485;28;20481;-85
2022/03/22 04:33:02;;;;;;;;;;;8.90;98.90;;;;;;5032760;28;19961;-83
2022/03/22 04:35:29;;;;;;;;;;;8.80;98.60;;;;;;5020248;28;19928;-84
2022/03/22 04:37:57;;;;;;;;;;;8.80;98.80;;;;;;5025837;28;19952;-83
2022/03/22 04:40:25;;;;;;;;;;;8.80;98.80;;;;;;5024151;28;19956;-83
2022/03/22 04:42:51;;;;;;;;;;;8.70;98.70;;;;;;5027609;28;19924;-83
2022/03/22 04:45:18;;;;;;;;;;;8.70;98.60;;;;;;5028179;28;19954;-83
2022/03/22 04:47:45;;;;;;;;;;;8.60;98.50;;;;;;5003164;28;19929;-83
2022/03/22 04:50:13;;;;;;;;;;;8.60;98.60;;;;;;5023654;28;19940;-83
2022/03/22 04:58:11;;;;;;;;;;;8.50;98.40;;;;;;5021425;28;19925;-82
2022/03/22 05:00:38;;;;;;;;;;;8.50;98.40;;;;;;5015388;28;19925;-83
2022/03/22 05:03:07;;;;;;;;;;;8.50;98.50;;;;;;5013992;28;19921;-83
2022/03/22 05:08:18;;;;;;;;;;;8.30;98.50;;;;;;5010779;28;19921;-83
2022/03/22 05:10:46;;;;;;;;;;;8.30;98.50;;;;;;5022316;28;19933;-84
2022/03/22 05:13:13;;;;;;;;;;;8.30;98.50;;;;;;5028282;28;19925;-83
2022/03/22 05:15:42;;;;;;;;;;;8.20;98.40;;;;;;5018493;28;20016;-84
2022/03/22 05:18:08;;;;;;;;;;;8.20;98.40;;;;;;5021219;28;19952;-84
2022/03/22 05:20:35;;;;;;;;;;;8.20;98.50;;;;;;5021665;28;19929;-84
2022/03/22 05:23:03;;;;;;;;;;;8.20;98.50;;;;;;5029062;28;20161;-83
2022/03/22 05:25:31;;;;;;;;;;;8.10;98.40;;;;;;5010883;28;19925;-83
2022/03/22 05:28:00;;;;;;;;;;;8.10;98.50;;;;;;5016819;28;20061;-83
2022/03/22 05:30:27;;;;;;;;;;;8.00;98.40;;;;;;5023320;28;20005;-82
2022/03/22 05:32:54;;;;;;;;;;;8.00;98.40;;;;;;5011858;28;19957;-86
2022/03/22 05:35:23;;;;;;;;;;;8.00;98.40;;;;;;5006367;28;19935;-86
2022/03/22 05:37:50;;;;;;;;;;;8.00;98.50;;;;;;5023172;28;19925;-87
2022/03/22 05:40:17;;;;;;;;;;;7.90;98.50;;;;;;5016292;28;20062;-86
2022/03/22 05:42:44;;;;;;;;;;;7.90;98.70;;;;;;5013457;28;19995;-87
2022/03/22 05:45:12;;;;;;;;;;;7.90;98.90;;;;;;5008562;28;20000;-86
2022/03/22 05:47:39;;;;;;;;;;;7.90;99.00;;;;;;5015608;28;20003;-86
2022/03/22 05:50:06;;;;;;;;;;;7.90;99.10;;;;;;5024063;28;20616;-83
2022/03/22 05:52:33;;;;;;;;;;;7.90;99.20;;;;;;5019639;28;19937;-83
2022/03/22 05:55:00;;;;;;;;;;;8.00;99.40;;;;;;5016524;28;19925;-83
2022/03/22 05:57:27;;;;;;;;;;;8.00;99.70;;;;;;5008820;28;20425;-83
2022/03/22 05:59:53;;;;;;;;;;;8.00;99.80;;;;;;5013513;28;20068;-82
2022/03/22 06:02:21;;;;;;;;;;;8.10;99.80;;;;;;5017897;28;19932;-82
2022/03/22 06:04:49;;;;;;;;;;;8.20;99.90;;;;;;5011607;28;20038;-83
2022/03/22 06:07:20;;;;;;;;;;;8.40;99.90;;;;;;5013930;28;20450;-83
2022/03/22 06:09:46;;;;;;;;;;;8.50;99.90;;;;;;5027398;28;20091;-82
2022/03/22 06:12:13;;;;;;;;;;;8.70;99.90;;;;;;5020056;28;19941;-82
2022/03/22 06:14:40;;;;;;;;;;;9.00;99.90;;;;;;5020584;28;19931;-82
2022/03/22 06:17:07;;;;;;;13.07;7.77;;;9.30;99.90;;;;;;5024512;28;20211;-82
2022/03/22 06:19:35;;;;;;;12.20;7.47;;;9.70;99.90;;;;;;5015325;28;20220;-82
2022/03/22 06:22:02;;;;;;;10.83;7.50;;;10.10;99.90;;;;;;5009743;28;20210;-82
2022/03/22 06:24:29;;;;;;;12.00;7.03;;;10.50;99.90;;;;;;5016609;28;20222;-82
2022/03/22 06:26:56;;;;;;;13.23;7.30;;;11.00;99.90;;;;;;5015151;28;20210;-82
2022/03/22 06:29:23;;;;;;;12.17;7.83;;;11.70;99.90;;;;;;5015169;28;20197;-83
2022/03/22 06:31:52;;;;;;;12.37;8.00;;;12.00;99.90;;;;;;5008768;28;20214;-82
2022/03/22 06:34:18;;;;;;;;;;;13.10;99.90;;;;;;4998597;28;20129;-82
2022/03/22 06:36:46;;;;;;;;;;;13.20;99.90;;;;;;5023671;28;19928;-82
2022/03/22 06:39:13;;;;;;;;;;;13.80;99.90;;;;;;5020523;28;19937;-82
2022/03/22 06:41:40;;;;;;;;;;;14.40;99.60;;;;;;5028447;28;20300;-82
2022/03/22 06:44:07;;;;;;;;;;;15.40;99.10;;;;;;5014265;28;19929;-83
2022/03/22 06:46:33;;;;;;;;;;;15.50;98.10;;;;;;5020488;28;19933;-83
2022/03/22 06:49:00;;;;;;;;;;;16.00;98.10;;;;;;5018444;28;19924;-82
2022/03/22 06:51:27;;;;;;;13.33;7.57;;;16.50;97.80;;;;;;5020683;28;20638;-83
2022/03/22 06:53:55;;;;;;;13.53;8.13;;;17.40;95.50;;;;;;5023689;28;20706;-83
2022/03/22 06:56:22;;;;;;;11.97;8.37;;;17.40;95.70;;;;;;5025702;28;20210;-83
2022/03/22 06:58:50;;;;;;;11.07;8.47;;;17.90;94.80;;;;;;5025578;28;20226;-83
2022/03/22 07:01:17;;;;;;;13.33;8.67;;;18.40;94.80;;;;;;5022449;28;20276;-83
2022/03/22 07:03:44;;;;;;;11.63;8.47;;;18.90;94.20;;;;;;5014524;28;20267;-82
2022/03/22 07:06:11;;;;;;;13.17;8.40;;;19.50;93.80;;;;;;5038372;28;20252;-81
2022/03/22 07:08:37;;;;;;;12.63;8.87;;;20.00;92.80;;;;;;5035189;28;20210;-81
2022/03/22 07:13:56;;;;;;;17.47;8.33;;;21.40;90.60;;;;;;5000223;28;21031;-82
2022/03/22 07:16:27;;;;;;;11.63;8.70;;;21.40;90.60;;;;;;5021845;28;20205;-82
2022/03/22 07:18:57;;;;;;;10.27;8.47;;;21.80;88.90;;;;;;5041466;28;20275;-82
2022/03/22 07:21:25;;;;;;;15.93;8.87;;;22.40;85.90;;;;;;5042832;28;20202;-81
2022/03/22 07:23:52;;;;;;;10.50;8.40;;;22.50;82.90;;;;;;5027518;28;20213;-82
2022/03/22 07:26:22;;;;;;;12.33;8.30;;;22.70;83.20;;;;;;5022094;28;20206;-82
2022/03/22 07:28:49;;;;;;;11.07;8.57;;;23.10;82.40;;;;;;5032463;28;20209;-83
2022/03/22 07:31:16;;;;;;;10.63;8.40;;;23.40;80.90;;;;;;5026535;28;20217;-82
2022/03/22 07:33:43;;;;;;;13.20;8.20;;;23.70;79.90;;;;;;5023170;28;20499;-85
2022/03/22 07:36:12;;;;;;;11.13;8.50;;;23.90;78.10;;;;;;5002005;28;20232;-85
2022/03/22 07:38:39;;;;;;;11.73;8.50;;;;;;;;;;5004866;28;20218;-84
2022/03/22 07:41:07;;;;;;;14.13;8.70;;;24.10;70.60;;;;;;5022263;28;20215;-85
2022/03/22 07:43:37;;;;;;;11.30;8.33;;;24.10;69.80;;;;;;5024411;28;20218;-86
2022/03/22 07:46:04;;;;;;;10.63;8.47;;;24.10;71.70;;;;;;5008895;28;20706;-86
2022/03/22 07:48:31;;;;;;;12.77;8.57;;;24.30;70.10;;;;;;5017831;28;20216;-85
2022/03/22 07:53:44;;;;;;;12.33;8.53;;;24.50;66.20;;;;;;5026064;28;20754;-85
2022/03/22 07:56:11;;;;;;;9.70;7.93;;;24.40;67.10;;;;;;5032722;28;20280;-84
2022/03/22 07:58:41;;;;;;;11.27;8.47;;;24.60;67.00;;;;;;5007488;28;20710;-85
2022/03/22 08:01:08;;;;;;;10.23;8.93;;;24.60;66.70;;;;;;5023161;28;20263;-84
2022/03/22 08:03:37;;;;;;;11.73;8.40;;;24.70;66.70;;;;;;5026213;28;20209;-86
2022/03/22 08:06:07;;;;;;;13.87;8.10;;;24.90;65.30;;;;;;5030870;28;20555;-85
2022/03/22 08:08:34;;;;;;;9.57;8.40;;;24.90;64.80;;;;;;5001767;28;20266;-84
2022/03/22 08:11:02;;;;;;;11.40;9.17;;;24.90;61.30;;;;;;5006889;28;20680;-85
2022/03/22 08:13:29;;;;;;;12.30;8.30;;;24.90;62.90;;;;;;5014048;28;20265;-85
2022/03/22 08:15:57;;;;;;;11.13;8.03;;;25.00;63.50;;;;;;5010587;28;20236;-85
2022/03/22 08:18:26;;;;;;;9.83;8.17;;;25.10;61.30;;;;;;5023156;28;20215;-86
2022/03/22 08:20:53;;;;;;;10.17;8.13;;;25.10;61.20;;;;;;5010552;28;20232;-86
2022/03/22 08:23:21;;;;;;;11.33;7.80;;;;;;;;;;5013122;28;20216;-85
2022/03/22 08:25:49;;;;;;;9.83;8.83;;;25.10;59.30;;;;;;5011683;28;20236;-85
2022/03/22 08:28:17;;;;;;;8.90;7.93;;;25.00;59.30;;;;;;5022237;28;20204;-85
2022/03/22 08:30:45;;;;;;;10.53;8.40;;;24.80;59.30;;;;;;5002477;28;20202;-83
2022/03/22 08:33:13;;;;;;;9.30;7.83;;;24.70;58.40;;;;;;5012322;28;20238;-85
2022/03/22 08:35:43;;;;;;;12.07;7.77;;;24.70;59.40;;;;;;5022562;28;20236;-85
2022/03/22 08:38:10;;;;;;;12.53;7.87;;;24.70;60.20;;;;;;5027822;28;20947;-85
2022/03/22 08:40:38;;;;;;;10.50;8.47;;;24.90;60.60;;;;;;5007494;28;20231;-85
2022/03/22 08:43:07;;;;;;;13.37;8.87;;;25.00;59.30;;;;;;5008850;28;20783;-85
2022/03/22 08:45:35;;;;;;;9.87;8.03;;;25.10;59.20;;;;;;5004827;28;20237;-86
2022/03/22 08:48:09;;;;;;;10.90;8.93;;;25.00;59.60;;;;;;5008205;28;20726;-85
2022/03/22 08:50:38;;;;;;;11.13;8.30;;;25.00;59.20;;;;;;5017741;28;20233;-86
2022/03/22 08:53:06;;;;;;;12.30;8.80;;;24.90;58.80;;;;;;5014324;28;20723;-86
2022/03/22 08:55:36;;;;;;;13.33;8.77;;;25.00;58.50;;;;;;5030080;28;20241;-86
2022/03/22 08:58:05;;;;;;;9.43;8.33;;;24.90;56.70;;;;;;5014457;28;20295;-87
2022/03/22 09:00:48;;;;;;;8.27;7.40;;;24.70;55.20;;;;;;5015222;28;20822;-87
2022/03/22 09:06:07;;;;;;;8.90;8.00;;;24.30;56.20;;;;;;5022317;28;20217;-86
2022/03/22 09:06:37;;;;;;;9.77;8.13;;;24.40;56.60;;;;;;5003094;28;20313;-85
2022/03/22 09:09:06;;;;;;;8.97;8.03;;;24.20;57.00;;;;;;5021543;28;20198;-86
2022/03/22 09:11:34;;;;;;;10.17;8.23;;;24.20;57.00;;;;;;5011273;28;20224;-86
2022/03/22 09:14:01;;;;;;;9.40;7.68;;;24.10;56.60;;;;;;5019895;28;20252;-86
2022/03/22 09:16:28;;;;;;;9.47;8.47;;;24.20;56.60;;;;;;5021504;28;20222;-85
2022/03/22 09:18:56;;;;;;;9.65;8.52;;;24.10;56.50;;;;;;5023963;28;20223;-86
2022/03/22 09:21:23;;;;;;;9.77;8.10;;;24.00;56.40;;;;;;5016323;28;20214;-86
2022/03/22 09:23:51;;;;;;;10.83;7.83;;;23.90;56.60;;;;;;5016030;28;20210;-86
2022/03/22 09:26:19;;;;;;;10.50;7.90;;;23.80;56.90;;;;;;5009035;28;20593;-86
2022/03/22 09:28:52;;;;;;;10.70;8.33;;;;;;;;;;5034109;28;20212;-87
2022/03/22 09:31:20;;;;;;;10.33;8.03;;;23.70;53.90;;;;;;5022321;28;20673;-86
2022/03/22 09:33:48;;;;;;;12.87;8.27;;;23.10;54.80;;;;;;5014586;28;20284;-87
2022/03/22 09:36:16;;;;;;;10.17;8.07;;;22.50;54.10;;;;;;5026711;28;20250;-86
2022/03/22 09:38:45;;;;;;;11.27;8.50;;;21.80;54.30;;;;;;5019495;28;20370;-86
2022/03/22 09:41:15;;;;;;;9.33;7.37;;;21.30;54.80;;;;;;5021550;28;20349;-86
2022/03/22 09:43:45;;;;;;;;;;;20.80;54.00;;;;;;5016443;28;20088;-85
2022/03/22 09:46:13;;;;;;;;;;;19.80;53.90;;;;;;5034096;28;20282;-85
2022/03/22 09:48:40;;;;;;;;;;;19.70;54.40;;;;;;5011122;28;19921;-86
2022/03/22 09:53:52;;;;;;;;;;;19.00;54.70;;;;;;5004573;28;20326;-85
2022/03/22 09:56:21;;;;;;;;;;;19.00;55.50;;;;;;5028196;28;19925;-86
2022/03/22 09:58:48;;;;;;;;;;;19.00;56.00;;;;;;5025529;28;20329;-86
2022/03/22 10:01:15;;;;;;;;;;;19.00;55.80;;;;;;5024243;28;19928;-86
2022/03/22 10:03:42;;;;;;;;;;;18.90;56.00;;;;;;5029331;28;19948;-85
2022/03/22 10:06:09;;;;;;;;;;;19.00;56.30;;;;;;5028599;28;19925;-86
2022/03/22 10:08:37;;;;;;;;;;;19.00;56.30;;;;;;5024662;28;20029;-86
2022/03/22 10:11:04;;;;;;;;;;;19.10;57.00;;;;;;5027199;28;19948;-86
2022/03/22 10:13:35;;;;;;;;;;;19.20;57.20;;;;;;5020113;28;19925;-86
2022/03/22 10:16:02;;;;;;;;;;;19.50;57.20;;;;;;5022966;28;19953;-86
2022/03/22 10:18:29;;;;;;;;;;;19.50;57.50;;;;;;5022278;28;19928;-86
2022/03/22 10:21:00;;;;;;;;;;;19.50;57.50;;;;;;5012444;28;19967;-86
2022/03/22 10:23:27;;;;;;;;;;;19.60;57.40;;;;;;5032563;28;20293;-85
2022/03/22 10:26:03;;;;;;;;;;;19.70;57.20;;;;;;5029716;28;19921;-86
2022/03/22 10:28:30;;;;;;;;;;;19.90;57.80;;;;;;5004042;28;19931;-86
2022/03/22 10:30:58;;;;;;;;;;;20.00;58.30;;;;;;4998523;28;19925;-86
2022/03/22 10:33:26;;;;;;;;;;;20.10;57.70;;;;;;5032976;28;19999;-85
2022/03/22 10:35:53;;;;;;;;;;;20.30;58.20;;;;;;5034953;28;19925;-85
2022/03/22 10:38:20;;;;;;;;;;;20.30;57.50;;;;;;5022265;28;19939;-85
2022/03/22 10:40:48;;;;;;;;;;;20.40;57.80;;;;;;5029979;28;19929;-85
2022/03/22 10:43:15;;;;;;;;;;;20.60;57.70;;;;;;5019665;28;19921;-85
2022/03/22 10:45:42;;;;;;;;;;;20.50;57.10;;;;;;5023041;28;19945;-85
2022/03/22 10:48:11;;;;;;;;;;;20.50;56.90;;;;;;5029294;28;19933;-85
2022/03/22 10:50:38;;;;;;;;;;;20.60;57.40;;;;;;5011590;28;19995;-85
2022/03/22 10:53:06;;;;;;;;;;;20.70;57.10;;;;;;5019316;28;20016;-85
2022/03/22 10:55:33;;;;;;;;;;;20.80;57.60;;;;;;5001086;28;19932;-85
2022/03/22 10:58:01;;;;;;;;;;;20.90;57.20;;;;;;5016690;28;19932;-85
2022/03/22 11:00:30;;;;;;;;;;;21.10;57.80;;;;;;5017668;28;19929;-85
2022/03/22 11:02:57;;;;;;;;;;;21.20;57.50;;;;;;5025524;28;20346;-85
2022/03/22 11:05:27;;;;;;;;;;;21.30;57.80;;;;;;5020834;28;20035;-85
2022/03/22 11:07:55;;;;;;;;;;;21.40;58.00;;;;;;5013372;28;20020;-85
2022/03/22 11:10:25;;;;;;;;;;;21.40;57.80;;;;;;5018153;28;19939;-85
2022/03/22 11:12:51;;;;;;;;;;;21.40;57.00;;;;;;5027130;28;19980;-85
2022/03/22 11:15:18;;;;;;;;;;;21.20;56.80;;;;;;5018616;28;19944;-85
2022/03/22 11:17:46;;;;;;;;;;;21.10;56.60;;;;;;5016271;28;20035;-86
2022/03/22 11:20:14;;;;;;;;;;;21.10;56.60;;;;;;5010565;28;20401;-86
2022/03/22 11:22:49;;;;;;;;;;;21.20;56.90;;;;;;5008457;28;19929;-86
2022/03/22 11:25:18;;;;;;;;;;;21.30;57.20;;;;;;5007245;28;19932;-87
2022/03/22 11:27:56;;;;;;;;;;;21.30;56.60;;;;;;5029559;28;19975;-86
2022/03/22 11:30:24;;;;;;;;;;;21.40;57.70;;;;;;5026932;28;20016;-86
2022/03/22 11:35:44;;;;;;;;;;;23.20;58.50;;;;;;5027367;28;19925;-86
2022/03/22 11:38:14;;;;;;;;;;;22.00;57.30;;;;;;5020250;28;19928;-87
2022/03/22 11:43:45;;;;;;;;;;;22.10;57.30;;;;;;5035603;28;19927;-86
2022/03/22 11:46:11;;;;;;;;;;;22.20;57.40;;;;;;5051817;28;19916;-85
2022/03/22 11:48:39;;;;;;;;;;;22.30;57.00;;;;;;5027258;28;19932;-85
2022/03/22 11:51:06;;;;;;;;;;;23.70;58.80;;;;;;5004362;28;19963;-85
2022/03/22 11:53:42;;;;;;;;;;;22.60;57.00;;;;;;5019478;28;19921;-87
2022/03/22 11:56:09;;;;;;;;;;;22.40;56.00;;;;;;5018808;28;19939;-85
2022/03/22 11:58:36;;;;;;;;;;;22.40;56.50;;;;;;5026695;28;19956;-86
2022/03/22 12:01:04;;;;;;;;;;;22.30;56.60;;;;;;5021896;28;19967;-85
2022/03/22 12:03:32;;;;;;;;;;;22.20;56.70;;;;;;5029260;28;19979;-86
2022/03/22 12:06:09;;;;;;;;;;;22.30;57.20;;;;;;5022886;28;19921;-86
2022/03/22 12:08:36;;;;;;;;;;;22.50;56.50;;;;;;5016574;28;19967;-85
2022/03/22 12:11:04;;;;;;;;;;;22.50;56.20;;;;;;5021298;28;19921;-86
2022/03/22 12:13:31;;;;;;;;;;;22.40;56.90;;;;;;5021759;28;19921;-86
2022/03/22 12:15:58;;;;;;;;;;;22.30;56.40;;;;;;5024018;28;19974;-85
2022/03/22 12:18:28;;;;;;;;;;;22.30;56.60;;;;;;5013381;28;20300;-85
2022/03/22 12:20:56;;;;;;;;;;;22.30;56.70;;;;;;5029681;28;20024;-85
2022/03/22 12:23:23;;;;;;;;;;;22.40;56.90;;;;;;5005909;28;20015;-85
2022/03/22 12:25:51;;;;;;;;;;;22.50;56.60;;;;;;5017232;28;19926;-85
2022/03/22 12:28:20;;;;;;;;;;;22.50;56.40;;;;;;5023343;28;19991;-86
2022/03/22 12:30:47;;;;;;;;;;;22.60;56.80;;;;;;5043288;28;19913;-85
2022/03/22 12:33:14;;;;;;;;;;;22.50;55.60;;;;;;5037094;28;19952;-84
2022/03/22 12:35:42;;;;;;;;;;;22.30;56.30;;;;;;5045779;28;19909;-84
2022/03/22 12:38:09;;;;;;;;;;;22.40;55.90;;;;;;5040789;28;19928;-84
2022/03/22 12:40:36;;;;;;;;;;;22.50;56.80;;;;;;5028236;28;19952;-83
2022/03/22 12:43:04;;;;;;;;;;;22.60;56.20;;;;;;5041340;28;19909;-83
2022/03/22 12:45:32;;;;;;;;;;;22.40;54.90;;;;;;5051921;28;19979;-82
2022/03/22 12:47:59;;;;;;;;;;;22.00;54.40;;;;;;5051443;28;19909;-84
2022/03/22 12:50:27;;;;;;;;;;;22.00;54.90;;;;;;5049461;28;19976;-84
2022/03/22 12:52:54;;;;;;;;;;;22.00;55.90;;;;;;5032772;28;20028;-85
2022/03/22 12:55:22;;;;;;;;;;;22.10;55.70;;;;;;5032124;28;19925;-84
2022/03/22 12:57:51;;;;;;;;;;;22.10;55.10;;;;;;5014611;28;19979;-85
2022/03/22 13:00:28;;;;;;;;;;;22.40;55.50;;;;;;5014125;28;19925;-86
2022/03/22 13:02:56;;;;;;;;;;;22.10;55.70;;;;;;5014152;28;19929;-85
2022/03/22 13:05:24;;;;;;;;;;;22.10;56.00;;;;;;5022477;28;19948;-85
2022/03/22 13:07:50;;;;;;;;;;;22.30;56.00;;;;;;5019198;28;19941;-85
2022/03/22 13:13:01;;;;;;;;;;;22.20;55.00;;;;;;5022381;28;20511;-85
2022/03/22 13:15:27;;;;;;;;;;;22.20;55.10;;;;;;5016895;28;19952;-86
2022/03/22 13:17:55;;;;;;;;;;;22.20;55.00;;;;;;5022454;28;19960;-86
2022/03/22 13:20:24;;;;;;;;;;;22.20;55.40;;;;;;5022355;28;19922;-86
2022/03/22 13:22:52;;;;;;;;;;;22.20;54.40;;;;;;5030308;28;19971;-83
2022/03/22 13:25:24;;;;;;;;;;;22.10;52.90;;;;;;5028226;28;20423;-84
2022/03/22 13:27:53;;;;;;;;;;;22.10;53.20;;;;;;5028526;28;19967;-84
2022/03/22 13:30:21;;;;;;;;;;;21.90;53.80;;;;;;5016188;28;19925;-85
2022/03/22 13:32:47;;;;;;;;;;;22.00;54.80;;;;;;4997018;28;20024;-84
2022/03/22 13:35:18;;;;;;;;;;;22.00;54.00;;;;;;5021444;28;19940;-84
2022/03/22 13:37:49;;;;;;;;;;;22.00;54.00;;;;;;4997050;28;19925;-85
2022/03/22 13:40:16;;;;;;;;;;;21.90;53.60;;;;;;5029502;28;20278;-84
2022/03/22 13:42:56;;;;;;;;;;;21.80;53.80;;;;;;5027901;28;19925;-84
2022/03/22 13:45:23;;;;;;;;;;;21.70;53.20;;;;;;5018777;28;19936;-85
2022/03/22 13:47:51;;;;;;;;;;;21.70;53.90;;;;;;5029805;28;19936;-84
2022/03/22 13:50:21;;;;;;;;;;;21.70;54.30;;;;;;5019095;28;19925;-84
2022/03/22 13:52:58;;;;;;;;;;;21.80;53.90;;;;;;5000194;28;20008;-84
2022/03/22 13:55:26;;;;;;;;;;;21.80;54.60;;;;;;5009297;28;19921;-85
2022/03/22 13:57:54;;;;;;;;;;;21.70;53.60;;;;;;5011538;28;20039;-86
2022/03/22 14:00:21;;;;;;;;;;;21.70;53.10;;;;;;5018848;28;19929;-86
2022/03/22 14:02:48;;;;;;;;;;;21.50;52.80;;;;;;5028791;28;20351;-85
2022/03/22 14:05:14;;;;;;;;;;;21.50;53.20;;;;;;5012230;28;19931;-85
2022/03/22 14:07:52;;;;;;;;;;;21.50;52.70;;;;;;5028406;28;19921;-85
2022/03/22 14:10:19;;;;;;;;;;;21.40;51.70;;;;;;5030361;28;19925;-85
2022/03/22 14:12:46;;;;;;;;;;;21.40;52.30;;;;;;5021421;28;19960;-86
2022/03/22 14:15:13;;;;;;;;;;;21.30;52.50;;;;;;5031378;28;19928;-85
2022/03/22 14:17:40;;;;;;;;;;;21.20;52.50;;;;;;5011654;28;20019;-84
2022/03/22 14:20:08;;;;;;;;;;;21.30;53.30;;;;;;5008343;28;19928;-85
2022/03/22 14:22:35;;;;;;;;;;;20.10;52.50;;;;;;5015189;28;19963;-86
2022/03/22 14:25:03;;;;;;;;;;;21.30;51.70;;;;;;5019802;28;20581;-85
2022/03/22 14:27:30;;;;;;;;;;;21.30;52.30;;;;;;5012372;28;19931;-86
2022/03/22 14:29:58;;;;;;;;;;;21.20;51.60;;;;;;5003040;28;19925;-85
2022/03/22 14:32:25;;;;;;;;;;;21.20;51.80;;;;;;5028912;28;19975;-85
2022/03/22 14:37:37;;;;;;;;;;;21.20;51.70;;;;;;5011045;28;19917;-86
2022/03/22 14:40:05;;;;;;;;;;;21.20;52.20;;;;;;5029517;28;19952;-85
2022/03/22 14:42:32;;;;;;;;;;;21.20;52.10;;;;;;5009234;28;19927;-85
2022/03/22 14:45:01;;;;;;;;;;;21.30;53.00;;;;;;5019972;28;19925;-86